createdAt,value
2024-04-16T00:02:10.297Z,100024.53
2024-04-16T00:04:39.975Z,100033.25
2024-04-16T00:07:07.024Z,100015.81
2024-04-16T00:09:36.666Z,100007.53
2024-04-16T00:12:03.935Z,100009.22
2024-04-16T00:14:33.526Z,99998.09
2024-04-16T00:17:00.560Z,100003.28
2024-04-16T00:19:32.893Z,100006.63
2024-04-16T00:22:00.124Z,100010.53
2024-04-16T00:24:29.849Z,99991.56
2024-04-16T00:26:56.754Z,99986.34
2024-04-16T00:29:26.307Z,99983.53
2024-04-16T00:31:53.257Z,99980.88
2024-04-16T00:34:22.720Z,99987.56
2024-04-16T00:36:52.269Z,99976.06
2024-04-16T00:39:21.784Z,99961.28
2024-04-16T00:41:49.372Z,99968.13
2024-04-16T00:44:18.839Z,99964.34
2024-04-16T00:46:45.887Z,99961.09
2024-04-16T00:49:15.490Z,99967.28
2024-04-16T00:51:43.380Z,99956.78
2024-04-16T00:54:15.905Z,99953.94
2024-04-16T00:56:42.951Z,99956.59
2024-04-16T00:59:14.258Z,99950.97
2024-04-16T01:01:41.518Z,99951.03
2024-04-16T01:04:11.245Z,99935.00
2024-04-16T01:06:38.512Z,99932.63
2024-04-16T01:09:08.068Z,99927.44
2024-04-16T01:11:37.553Z,99916.03
2024-04-16T01:14:07.149Z,99922.09
2024-04-16T01:16:34.250Z,99925.63
2024-04-16T01:19:04.261Z,99921.66
2024-04-16T01:21:31.140Z,99935.97
2024-04-16T01:24:03.419Z,99926.59
2024-04-16T01:26:30.340Z,99925.63
2024-04-16T01:28:59.916Z,99913.28
2024-04-16T01:31:27.008Z,99900.91
2024-04-16T01:33:56.516Z,99897.13
2024-04-16T01:36:23.426Z,99895.44
2024-04-16T01:38:53.069Z,99891.78
2024-04-16T01:41:22.748Z,99883.91
2024-04-16T01:43:52.619Z,99881.66
2024-04-16T01:46:19.907Z,99888.78
2024-04-16T01:48:49.951Z,99884.78
2024-04-16T01:51:17.015Z,99877.19
2024-04-16T01:53:46.418Z,99878.56
2024-04-16T01:56:14.153Z,99884.22
2024-04-16T01:58:46.285Z,99869.47
2024-04-16T02:01:13.271Z,99862.91
2024-04-16T02:03:43.066Z,99866.16
2024-04-16T02:06:09.889Z,99863.63
2024-04-16T02:08:39.381Z,99852.59
2024-04-16T02:11:06.423Z,99854.25
2024-04-16T02:13:35.941Z,99853.94
2024-04-16T02:16:06.612Z,99840.44
2024-04-16T02:18:36.347Z,99828.69
2024-04-16T02:21:03.313Z,99822.34
2024-04-16T02:23:32.788Z,99839.13
2024-04-16T02:25:59.635Z,99824.75
2024-04-16T02:28:29.197Z,99831.38
2024-04-16T02:30:56.193Z,99815.84
2024-04-16T02:33:28.228Z,99816.19
2024-04-16T02:35:56.839Z,99812.72
2024-04-16T02:38:26.405Z,99802.56
2024-04-16T02:40:53.269Z,99793.56
2024-04-16T02:43:22.936Z,99794.69
2024-04-16T02:45:50.328Z,99784.53
2024-04-16T02:48:19.793Z,99786.44
2024-04-16T02:50:53.194Z,99794.28
2024-04-16T02:53:22.715Z,99806.81
2024-04-16T02:55:50.109Z,99793.69
2024-04-16T02:58:19.805Z,99792.19
2024-04-16T03:00:46.708Z,99776.16
2024-04-16T03:03:16.308Z,99776.31
2024-04-16T03:05:43.231Z,99770.13
2024-04-16T03:08:15.394Z,99766.31
2024-04-16T03:10:42.363Z,99761.81
2024-04-16T03:13:15.263Z,99764.31
2024-04-16T03:15:42.237Z,99762.84
2024-04-16T03:18:12.043Z,99741.47
2024-04-16T03:20:38.937Z,99745.16
2024-04-16T03:23:08.704Z,99742.63
2024-04-16T03:25:44.333Z,99727.75
2024-04-16T03:28:14.275Z,99721.41
2024-04-16T03:30:41.200Z,99730.13
2024-04-16T03:33:10.858Z,99714.09
2024-04-16T03:35:37.733Z,99710.09
2024-04-16T03:38:07.750Z,99711.09
2024-04-16T03:40:37.369Z,99697.75
2024-04-16T03:43:07.005Z,99699.06
2024-04-16T03:45:36.510Z,99702.22
2024-04-16T03:48:03.594Z,99692.38
2024-04-16T03:50:33.194Z,99679.03
2024-04-16T03:53:00.196Z,99680.84
2024-04-16T03:55:29.667Z,99661.13
2024-04-16T03:57:56.622Z,99670.84
2024-04-16T04:00:44.350Z,99645.31
2024-04-16T04:03:17.495Z,99634.28
2024-04-16T04:05:47.388Z,99624.78
2024-04-16T04:08:14.522Z,99629.66
2024-04-16T04:10:45.175Z,99618.00
2024-04-16T04:13:12.167Z,99615.38
2024-04-16T04:15:44.328Z,99605.03
2024-04-16T04:18:14.059Z,99597.34
2024-04-16T04:20:41.055Z,99606.06
2024-04-16T04:23:10.978Z,99597.72
2024-04-16T04:25:38.056Z,99601.72
2024-04-16T04:28:08.518Z,99602.06
2024-04-16T04:30:35.406Z,99601.09
2024-04-16T04:33:07.877Z,99616.13
2024-04-16T04:35:35.024Z,99625.69
2024-04-16T04:38:04.673Z,99620.53
2024-04-16T04:40:31.653Z,99624.56
2024-04-16T04:43:01.419Z,99630.59
2024-04-16T04:45:28.880Z,99637.94
2024-04-16T04:47:58.551Z,99639.94
2024-04-16T04:50:28.230Z,99648.44
2024-04-16T04:52:57.772Z,99659.53
2024-04-16T04:55:24.697Z,99660.00
2024-04-16T04:57:57.719Z,99665.34
2024-04-16T05:00:24.831Z,99675.56
2024-04-16T05:02:54.532Z,99664.88
2024-04-16T05:05:21.521Z,99669.38
2024-04-16T05:07:53.720Z,99682.22
2024-04-16T05:10:20.973Z,99680.38
2024-04-16T05:12:51.111Z,99681.41
2024-04-16T05:15:18.606Z,99687.06
2024-04-16T05:17:48.783Z,99688.91
2024-04-16T05:20:16.668Z,99706.81
2024-04-16T05:22:46.401Z,99716.38
2024-04-16T05:25:16.212Z,99707.00
2024-04-16T05:27:46.493Z,99728.75
2024-04-16T05:30:13.352Z,99745.97
2024-04-16T05:32:43.052Z,99738.59
2024-04-16T05:35:09.970Z,99748.63
2024-04-16T05:37:42.330Z,99730.91
2024-04-16T05:40:10.160Z,99738.44
2024-04-16T05:42:42.414Z,99747.13
2024-04-16T05:45:09.451Z,99757.69
2024-04-16T05:47:39.023Z,99749.34
2024-04-16T05:50:07.476Z,99747.66
2024-04-16T05:52:37.022Z,99767.56
2024-04-16T05:55:04.263Z,99757.50
2024-04-16T05:57:33.868Z,99746.34
2024-04-16T06:00:04.879Z,99760.72
2024-04-16T06:02:34.877Z,99762.38
2024-04-16T06:05:01.939Z,99765.06
2024-04-16T06:07:31.668Z,99775.63
2024-04-16T06:09:58.641Z,99775.47
2024-04-16T06:12:28.181Z,99776.78
2024-04-16T06:14:55.020Z,99780.84
2024-04-16T06:17:27.110Z,99775.97
2024-04-16T06:19:54.027Z,99780.31
2024-04-16T06:22:23.878Z,99796.56
2024-04-16T06:24:50.935Z,99788.38
2024-04-16T06:27:20.664Z,99794.41
2024-04-16T06:29:47.516Z,99792.72
2024-04-16T06:32:17.539Z,99816.97
2024-04-16T06:34:47.414Z,99803.25
2024-04-16T06:37:16.965Z,99802.59
2024-04-16T06:39:43.832Z,99815.63
2024-04-16T06:42:15.480Z,99817.50
2024-04-16T06:44:43.642Z,99806.78
2024-04-16T06:47:13.292Z,99813.84
2024-04-16T06:49:40.395Z,99823.19
2024-04-16T06:52:12.651Z,99833.06
2024-04-16T06:54:39.718Z,99830.03
2024-04-16T06:57:09.381Z,99851.16
2024-04-16T06:59:36.297Z,99839.44
2024-04-16T07:02:06.366Z,99873.88
2024-04-16T07:04:33.993Z,99881.25
2024-04-16T07:07:05.890Z,99888.44
2024-04-16T07:09:37.441Z,99897.44
2024-04-16T07:12:07.531Z,99911.34
2024-04-16T07:14:37.039Z,99919.88
2024-04-16T07:17:04.146Z,99930.28
2024-04-16T07:19:33.918Z,99932.44
2024-04-16T07:22:01.112Z,99931.94
2024-04-16T07:24:30.644Z,99942.50
2024-04-16T07:27:00.211Z,99942.19
2024-04-16T07:29:29.719Z,99944.88
2024-04-16T07:31:56.618Z,99944.44
2024-04-16T07:34:26.611Z,99955.81
2024-04-16T07:36:53.575Z,99956.72
2024-04-16T07:39:23.289Z,99959.78
2024-04-16T07:41:50.459Z,99957.94
2024-04-16T07:44:23.840Z,99971.84
2024-04-16T07:46:51.291Z,99973.84
2024-04-16T07:49:20.914Z,99969.94
2024-04-16T07:51:47.990Z,99982.78
2024-04-16T07:54:17.704Z,99990.06
2024-04-16T07:56:44.670Z,99992.75
2024-04-16T07:59:14.452Z,100003.94
2024-04-16T08:01:44.168Z,100000.97
2024-04-16T08:04:16.614Z,100012.06
2024-04-16T08:06:43.653Z,100017.13
2024-04-16T08:09:13.985Z,100021.50
2024-04-16T08:11:40.951Z,100025.66
2024-04-16T08:14:10.544Z,100043.28
2024-04-16T08:16:37.533Z,100054.00
2024-04-16T08:19:09.781Z,100051.28
2024-04-16T08:21:36.842Z,100060.44
2024-04-16T08:24:06.588Z,100063.28
2024-04-16T08:26:33.524Z,100065.72
2024-04-16T08:29:02.997Z,100079.84
2024-04-16T08:31:31.489Z,100091.19
2024-04-16T08:34:03.579Z,100094.63
2024-04-16T08:36:33.352Z,100095.28
2024-04-16T08:39:02.914Z,100100.63
2024-04-16T08:41:30.424Z,100100.47
2024-04-16T08:44:04.581Z,100102.84
2024-04-16T08:46:33.612Z,100111.78
2024-04-16T08:49:04.422Z,100121.75
2024-04-16T08:51:35.835Z,100137.53
2024-04-16T08:54:06.456Z,100143.72
2024-04-16T08:56:36.504Z,100141.56
2024-04-16T08:59:06.258Z,100152.81
2024-04-16T09:01:33.838Z,100151.31
2024-04-16T09:04:03.965Z,100159.69
2024-04-16T09:06:33.796Z,100171.72
2024-04-16T09:09:09.823Z,100170.41
2024-04-16T09:11:38.205Z,100174.63
2024-04-16T09:14:07.827Z,100189.59
2024-04-16T09:16:36.415Z,100188.06
2024-04-16T09:19:10.233Z,100195.09
2024-04-16T09:21:40.151Z,100210.59
2024-04-16T09:24:12.321Z,100212.25
2024-04-16T09:26:39.363Z,100212.78
2024-04-16T09:29:08.865Z,100202.91
2024-04-16T09:31:35.764Z,100219.19
2024-04-16T09:34:09.683Z,100230.78
2024-04-16T09:36:47.485Z,100228.94
2024-04-16T09:39:21.107Z,100239.00
2024-04-16T09:41:51.878Z,100247.88
2024-04-16T09:44:19.551Z,100246.56
2024-04-16T09:46:54.480Z,100249.75
2024-04-16T09:49:30.952Z,100249.41
2024-04-16T09:52:08.980Z,100262.00
2024-04-16T09:54:39.733Z,100263.22
2024-04-16T09:57:08.098Z,100269.22
2024-04-16T09:59:37.703Z,100268.75
2024-04-16T10:02:05.151Z,100275.81
2024-04-16T10:04:36.440Z,100282.50
2024-04-16T10:07:04.473Z,100286.50
2024-04-16T10:09:37.178Z,100282.59
2024-04-16T10:12:06.193Z,100282.63
2024-04-16T10:14:35.752Z,100290.28
2024-04-16T10:17:02.870Z,100295.72
2024-04-16T10:19:33.071Z,100303.03
2024-04-16T10:22:02.668Z,100303.13
2024-04-16T10:24:33.397Z,100312.69
2024-04-16T10:27:03.100Z,100318.47
2024-04-16T10:29:34.241Z,100322.31
2024-04-16T10:32:02.956Z,100322.34
2024-04-16T10:34:32.930Z,100332.41
2024-04-16T10:36:59.930Z,100335.75
2024-04-16T10:39:35.361Z,100337.22
2024-04-16T10:42:05.490Z,100338.38
2024-04-16T10:44:37.467Z,100347.34
2024-04-16T10:47:05.635Z,100353.34
2024-04-16T10:49:35.284Z,100352.06
2024-04-16T10:52:11.065Z,100354.09
2024-04-16T10:54:42.071Z,100359.28
2024-04-16T10:57:11.689Z,100370.06
2024-04-16T10:59:48.805Z,100373.16
2024-04-16T11:02:21.483Z,100375.06
2024-04-16T11:04:51.049Z,100374.06
2024-04-16T11:07:18.364Z,100383.41
2024-04-16T11:09:48.621Z,100386.94
2024-04-16T11:12:18.255Z,100394.91
2024-04-16T11:14:48.804Z,100396.69
2024-04-16T11:17:15.712Z,100403.13
2024-04-16T11:19:45.411Z,100402.50
2024-04-16T11:22:13.065Z,100413.09
2024-04-16T11:24:42.895Z,100416.13
2024-04-16T11:27:12.868Z,100416.78
2024-04-16T11:29:51.783Z,100422.81
2024-04-16T11:32:19.490Z,100429.19
2024-04-16T11:34:50.444Z,100429.19
2024-04-16T11:37:18.144Z,100431.22
2024-04-16T11:39:47.940Z,100442.50
2024-04-16T11:42:14.920Z,100442.28
2024-04-16T11:44:45.068Z,100455.59
2024-04-16T11:47:14.851Z,100456.13
2024-04-16T11:49:44.675Z,100463.72
2024-04-16T11:52:11.913Z,100482.56
2024-04-16T11:54:41.521Z,100482.41
2024-04-16T11:57:08.525Z,100485.59
2024-04-16T11:59:38.411Z,100488.09
2024-04-16T12:02:08.411Z,100493.81
2024-04-16T12:04:41.929Z,100485.56
2024-04-16T12:07:09.034Z,100495.84
2024-04-16T12:09:38.929Z,100509.28
2024-04-16T12:12:06.335Z,100506.06
2024-04-16T12:14:35.866Z,100514.63
2024-04-16T12:17:02.864Z,100519.34
2024-04-16T12:19:33.078Z,100523.22
2024-04-16T12:22:02.668Z,100526.75
2024-04-16T12:24:32.262Z,100535.84
2024-04-16T12:26:59.205Z,100537.50
2024-04-16T12:29:28.684Z,100541.84
2024-04-16T12:31:56.025Z,100544.53
2024-04-16T12:34:25.881Z,100542.88
2024-04-16T12:36:53.135Z,100546.56
2024-04-16T12:39:25.420Z,100549.38
2024-04-16T12:41:52.348Z,100560.47
2024-04-16T12:44:23.769Z,100556.44
2024-04-16T12:46:50.765Z,100566.69
2024-04-16T12:49:20.635Z,100574.78
2024-04-16T12:51:47.475Z,100581.19
2024-04-16T12:54:19.456Z,100582.53
2024-04-16T12:56:51.985Z,100576.16
2024-04-16T12:59:23.283Z,100589.56
2024-04-16T13:01:50.477Z,100590.03
2024-04-16T13:04:20.158Z,100598.09
2024-04-16T13:06:47.160Z,100597.41
2024-04-16T13:09:16.707Z,100603.25
2024-04-16T13:11:43.685Z,100611.84
2024-04-16T13:14:16.336Z,100615.00
2024-04-16T13:16:43.196Z,100617.91
2024-04-16T13:19:14.559Z,100615.97
2024-04-16T13:21:44.429Z,100626.06
2024-04-16T13:24:11.397Z,100618.84
2024-04-16T13:26:40.900Z,100626.09
2024-04-16T13:29:07.778Z,100625.31
2024-04-16T13:31:40.053Z,100632.78
2024-04-16T13:34:09.278Z,100640.41
2024-04-16T13:36:38.790Z,100644.63
2024-04-16T13:39:05.947Z,100644.81
2024-04-16T13:41:35.551Z,100644.16
2024-04-16T13:44:02.390Z,100652.41
2024-04-16T13:46:32.061Z,100648.38
2024-04-16T13:49:01.597Z,100647.72
2024-04-16T13:51:31.159Z,100648.22
2024-04-16T13:53:58.131Z,100653.09
2024-04-16T13:56:27.677Z,100657.97
2024-04-16T13:58:54.763Z,100655.44
2024-04-16T14:01:24.452Z,100665.03
2024-04-16T14:03:51.593Z,100657.63
2024-04-16T14:06:23.879Z,100671.91
2024-04-16T14:08:50.950Z,100671.38
2024-04-16T14:11:23.120Z,100677.22
2024-04-16T14:13:52.956Z,100683.31
2024-04-16T14:16:22.722Z,100690.19
2024-04-16T14:18:52.274Z,100688.16
2024-04-16T14:21:24.534Z,100693.19
2024-04-16T14:23:52.383Z,100691.34
2024-04-16T14:26:21.834Z,100697.38
2024-04-16T14:28:49.163Z,100702.75
2024-04-16T14:31:19.087Z,100714.00
2024-04-16T14:33:46.699Z,100715.97
2024-04-16T14:36:17.526Z,100720.81
2024-04-16T14:38:47.442Z,100726.84
2024-04-16T14:41:16.987Z,100728.53
2024-04-16T14:43:44.063Z,100726.53
2024-04-16T14:46:13.615Z,100736.31
2024-04-16T14:48:40.581Z,100737.34
2024-04-16T14:51:10.237Z,100737.34
2024-04-16T14:53:39.464Z,100755.84
2024-04-16T14:56:11.858Z,100747.38
2024-04-16T14:58:38.752Z,100741.06
2024-04-16T15:01:08.394Z,100748.34
2024-04-16T15:03:35.284Z,100753.34
2024-04-16T15:06:06.272Z,100759.72
2024-04-16T15:08:33.402Z,100771.44
2024-04-16T15:11:03.172Z,100774.38
2024-04-16T15:13:32.841Z,100779.38
2024-04-16T15:16:02.714Z,100788.56
2024-04-16T15:18:29.798Z,100783.31
2024-04-16T15:20:59.483Z,100789.88
2024-04-16T15:23:27.549Z,100790.03
2024-04-16T15:25:57.097Z,100798.31
2024-04-16T15:28:24.169Z,100800.88
2024-04-16T15:30:56.439Z,100805.38
2024-04-16T15:33:23.597Z,100789.53
2024-04-16T15:35:54.247Z,100805.81
2024-04-16T15:38:22.085Z,100806.25
2024-04-16T15:40:54.755Z,100819.63
2024-04-16T15:43:21.769Z,100814.59
2024-04-16T15:45:51.657Z,100817.28
2024-04-16T15:48:21.514Z,100824.19
2024-04-16T15:50:53.142Z,100820.44
2024-04-16T15:53:20.088Z,100836.41
2024-04-16T15:55:53.558Z,100834.63
2024-04-16T15:58:24.024Z,100833.56
2024-04-16T16:00:54.356Z,100846.19
2024-04-16T16:03:24.163Z,100838.31
2024-04-16T16:05:56.703Z,100861.59
2024-04-16T16:08:25.048Z,100856.44
2024-04-16T16:10:55.123Z,100868.66
2024-04-16T16:13:22.305Z,100855.81
2024-04-16T16:15:51.844Z,100865.31
2024-04-16T16:18:19.101Z,100861.69
2024-04-16T16:20:55.867Z,100862.84
2024-04-16T16:23:22.856Z,100870.28
2024-04-16T16:25:53.046Z,100869.59
2024-04-16T16:28:20.181Z,100870.31
2024-04-16T16:30:49.926Z,100878.28
2024-04-16T16:33:16.882Z,100882.59
2024-04-16T16:35:48.562Z,100881.47
2024-04-16T16:38:18.096Z,100888.81
2024-04-16T16:40:47.828Z,100897.34
2024-04-16T16:43:14.916Z,100896.81
2024-04-16T16:45:44.686Z,100911.75
2024-04-16T16:48:11.808Z,100907.00
2024-04-16T16:50:43.931Z,100914.69
2024-04-16T16:53:11.897Z,100922.16
2024-04-16T16:55:44.096Z,100918.13
2024-04-16T16:58:11.036Z,100923.22
2024-04-16T17:00:41.061Z,100929.81
2024-04-16T17:03:08.182Z,100921.84
2024-04-16T17:05:39.029Z,100927.16
2024-04-16T17:08:07.078Z,100926.22
2024-04-16T17:10:36.603Z,100930.78
2024-04-16T17:13:06.538Z,100936.81
2024-04-16T17:15:38.406Z,100938.53
2024-04-16T17:18:06.212Z,100945.75
2024-04-16T17:20:35.808Z,100946.91
2024-04-16T17:23:03.599Z,100947.91
2024-04-16T17:25:33.291Z,100948.91
2024-04-16T17:28:00.543Z,100945.09
2024-04-16T17:30:32.803Z,100959.28
2024-04-16T17:32:59.763Z,100955.91
2024-04-16T17:35:29.510Z,100967.44
2024-04-16T17:37:57.683Z,100973.81
2024-04-16T17:40:27.481Z,100976.09
2024-04-16T17:42:55.080Z,100981.66
2024-04-16T17:45:24.576Z,100982.47
2024-04-16T17:47:54.325Z,100986.03
2024-04-16T17:50:23.843Z,100989.53
2024-04-16T17:52:51.012Z,100986.28
2024-04-16T17:55:22.606Z,100998.19
2024-04-16T17:57:52.029Z,101000.91
2024-04-16T18:00:21.949Z,101004.31
2024-04-16T18:02:54.391Z,101002.22
2024-04-16T18:05:23.969Z,101017.63
2024-04-16T18:07:51.111Z,101012.13
2024-04-16T18:10:23.507Z,101016.66
2024-04-16T18:12:50.603Z,101022.47
2024-04-16T18:15:20.661Z,101025.72
2024-04-16T18:17:47.632Z,101025.59
2024-04-16T18:20:20.164Z,101025.19
2024-04-16T18:22:47.925Z,101028.84
2024-04-16T18:25:17.946Z,101042.56
2024-04-16T18:27:44.843Z,101040.31
2024-04-16T18:30:15.292Z,101032.38
2024-04-16T18:32:45.464Z,101047.50
2024-04-16T18:35:15.224Z,101045.78
2024-04-16T18:37:44.905Z,101045.78
2024-04-16T18:40:15.183Z,101060.63
2024-04-16T18:42:42.108Z,101064.28
2024-04-16T18:45:11.615Z,101067.25
2024-04-16T18:47:38.546Z,101070.28
2024-04-16T18:50:08.588Z,101075.72
2024-04-16T18:52:35.472Z,101076.88
2024-04-16T18:55:08.127Z,101082.78
2024-04-16T18:57:35.174Z,101089.59
2024-04-16T19:00:04.668Z,101094.66
2024-04-16T19:02:31.589Z,101093.63
2024-04-16T19:05:01.130Z,101097.97
2024-04-16T19:07:28.025Z,101111.34
2024-04-16T19:09:57.896Z,101108.09
2024-04-16T19:12:27.565Z,101113.72
2024-04-16T19:14:57.879Z,101113.56
2024-04-16T19:17:24.873Z,101114.13
2024-04-16T19:19:54.610Z,101120.03
2024-04-16T19:22:24.460Z,101118.00
2024-04-16T19:24:56.398Z,101122.66
2024-04-16T19:27:28.276Z,101128.03
2024-04-16T19:29:57.910Z,101119.91
2024-04-16T19:32:24.883Z,101123.69
2024-04-16T19:34:55.061Z,101130.88
2024-04-16T19:37:22.027Z,101137.75
2024-04-16T19:39:51.949Z,101131.28
2024-04-16T19:42:19.287Z,101148.84
2024-04-16T19:44:51.766Z,101145.59
2024-04-16T19:47:18.620Z,101147.66
2024-04-16T19:49:48.672Z,101150.50
2024-04-16T19:52:18.730Z,101152.44
2024-04-16T19:54:48.746Z,101158.31
2024-04-16T19:57:15.613Z,101156.22
2024-04-16T19:59:46.210Z,101158.19
2024-04-16T20:02:17.273Z,101159.53
2024-04-16T20:04:50.604Z,101158.09
2024-04-16T20:07:17.749Z,101162.38
2024-04-16T20:09:49.165Z,101161.75
2024-04-16T20:12:16.103Z,101165.91
2024-04-16T20:14:46.254Z,101166.41
2024-04-16T20:17:15.872Z,101167.50
2024-04-16T20:19:48.870Z,101169.31
2024-04-16T20:22:15.843Z,101170.06
2024-04-16T20:24:45.393Z,101169.50
2024-04-16T20:27:12.290Z,101178.50
2024-04-16T20:29:41.881Z,101183.25
2024-04-16T20:32:08.713Z,101186.69
2024-04-16T20:34:47.706Z,101187.13
2024-04-16T20:37:19.920Z,101186.28
2024-04-16T20:39:51.408Z,101192.03
2024-04-16T20:42:18.251Z,101189.84
2024-04-16T20:44:47.715Z,101195.19
2024-04-16T20:47:14.572Z,101201.06
2024-04-16T20:49:47.508Z,101204.09
2024-04-16T20:52:15.693Z,101205.69
2024-04-16T20:54:45.320Z,101210.06
2024-04-16T20:57:12.232Z,101203.03
2024-04-16T20:59:43.037Z,101201.06
2024-04-16T21:02:10.163Z,101211.28
2024-04-16T21:04:39.622Z,101202.44
2024-04-16T21:07:09.215Z,101203.25
2024-04-16T21:09:38.759Z,101201.81
2024-04-16T21:12:06.283Z,101197.06
2024-04-16T21:14:35.726Z,101201.81
2024-04-16T21:17:02.575Z,101200.47
2024-04-16T21:19:32.756Z,101204.13
2024-04-16T21:21:59.754Z,101200.84
2024-04-16T21:24:31.844Z,101212.25
2024-04-16T21:26:58.674Z,101205.34
2024-04-16T21:29:28.196Z,101212.28
2024-04-16T21:31:55.207Z,101210.69
2024-04-16T21:34:24.741Z,101208.75
2024-04-16T21:36:51.697Z,101208.84
2024-04-16T21:39:22.553Z,101212.75
2024-04-16T21:41:52.368Z,101209.13
2024-04-16T21:44:22.023Z,101207.63
2024-04-16T21:46:49.478Z,101211.31
2024-04-16T21:49:21.110Z,101211.31
2024-04-16T21:51:47.976Z,101212.75
2024-04-16T21:54:17.402Z,101211.44
2024-04-16T21:56:44.507Z,101210.22
2024-04-16T21:59:16.633Z,101207.16
2024-04-16T22:01:43.591Z,101214.94
2024-04-16T22:04:13.141Z,101210.56
2024-04-16T22:06:40.077Z,101221.38
2024-04-16T22:09:10.068Z,101219.31
2024-04-16T22:11:37.101Z,101217.97
2024-04-16T22:14:06.604Z,101216.16
2024-04-16T22:17:29.699Z,101220.63
2024-04-16T22:20:52.901Z,101216.41
2024-04-16T22:23:53.096Z,101230.72
2024-04-16T22:26:19.911Z,101229.13
2024-04-16T22:28:50.544Z,101231.91
2024-04-16T22:31:17.545Z,101233.63
2024-04-16T22:33:46.980Z,101224.03
2024-04-16T22:36:14.082Z,101232.75
2024-04-16T22:38:43.599Z,101226.47
2024-04-16T22:41:13.112Z,101226.81
2024-04-16T22:43:42.605Z,101226.56
2024-04-16T22:46:11.959Z,101221.47
2024-04-16T22:48:41.569Z,101222.56
2024-04-16T22:51:08.606Z,101219.28
2024-04-16T22:53:38.072Z,101216.63
2024-04-16T22:56:05.638Z,101221.22
2024-04-16T22:58:37.805Z,101224.25
2024-04-16T23:01:05.140Z,101216.31
2024-04-16T23:03:34.765Z,101222.25
2024-04-16T23:06:01.752Z,101227.59
2024-04-16T23:08:31.296Z,101227.69
2024-04-16T23:10:58.456Z,101228.69
2024-04-16T23:13:28.110Z,101229.03
2024-04-16T23:15:57.647Z,101221.38
2024-04-16T23:18:27.131Z,101220.63
2024-04-16T23:20:54.079Z,101221.97
2024-04-16T23:23:23.743Z,101216.16
2024-04-16T23:25:50.709Z,101215.81
2024-04-16T23:28:20.504Z,101216.63
2024-04-16T23:30:47.451Z,101221.00
2024-04-16T23:33:19.602Z,101227.59
2024-04-16T23:35:46.568Z,101226.72
2024-04-16T23:38:16.105Z,101228.22
2024-04-16T23:40:47.375Z,101225.78
2024-04-16T23:43:17.066Z,101224.69
2024-04-16T23:45:43.916Z,101218.25
2024-04-16T23:48:13.433Z,101220.72
2024-04-16T23:50:43.018Z,101221.78
2024-04-16T23:53:12.491Z,101219.34
2024-04-16T23:55:39.898Z,101230.63
2024-04-16T23:58:09.439Z,101229.47
